sensor_id;sensor_type;location;lat;lon;timestamp;P1;durP1;ratioP1;P2;durP2;ratioP2
61015;SDS011;46902;52.920;6.536;2023-01-19T00:01:23;8.35;;;4.95;;
61015;SDS011;46902;52.920;6.536;2023-01-19T00:03:51;7.72;;;4.93;;
61015;SDS011;46902;52.920;6.536;2023-01-19T00:06:17;6.63;;;4.00;;
61015;SDS011;46902;52.920;6.536;2023-01-19T00:08:42;8.80;;;3.97;;
61015;SDS011;46902;52.920;6.536;2023-01-19T00:11:10;6.03;;;3.63;;
61015;SDS011;46902;52.920;6.536;2023-01-19T00:13:37;9.68;;;3.53;;
61015;SDS011;46902;52.920;6.536;2023-01-19T00:16:03;4.20;;;2.20;;
61015;SDS011;46902;52.920;6.536;2023-01-19T00:18:29;6.53;;;2.40;;
61015;SDS011;46902;52.920;6.536;2023-01-19T00:20:55;5.35;;;2.28;;
61015;SDS011;46902;52.920;6.536;2023-01-19T00:23:20;14.15;;;2.40;;
61015;SDS011;46902;52.920;6.536;2023-01-19T00:25:46;5.13;;;2.00;;
61015;SDS011;46902;52.920;6.536;2023-01-19T00:28:14;4.72;;;1.80;;
61015;SDS011;46902;52.920;6.536;2023-01-19T00:30:40;3.17;;;1.88;;
61015;SDS011;46902;52.920;6.536;2023-01-19T00:33:07;2.92;;;1.60;;
61015;SDS011;46902;52.920;6.536;2023-01-19T00:35:34;3.95;;;1.50;;
61015;SDS011;46902;52.920;6.536;2023-01-19T00:38:00;3.33;;;1.63;;
61015;SDS011;46902;52.920;6.536;2023-01-19T00:40:26;5.18;;;1.50;;
61015;SDS011;46902;52.920;6.536;2023-01-19T00:42:52;2.55;;;1.67;;
61015;SDS011;46902;52.920;6.536;2023-01-19T00:45:20;3.97;;;1.92;;
61015;SDS011;46902;52.920;6.536;2023-01-19T00:47:47;2.22;;;1.95;;
61015;SDS011;46902;52.920;6.536;2023-01-19T00:50:24;4.97;;;2.60;;
61015;SDS011;46902;52.920;6.536;2023-01-19T00:52:51;3.70;;;2.67;;
61015;SDS011;46902;52.920;6.536;2023-01-19T00:55:18;3.38;;;2.45;;
61015;SDS011;46902;52.920;6.536;2023-01-19T00:57:44;3.45;;;2.65;;
61015;SDS011;46902;52.920;6.536;2023-01-19T01:00:11;3.45;;;2.38;;
61015;SDS011;46902;52.920;6.536;2023-01-19T01:02:38;4.30;;;2.80;;
61015;SDS011;46902;52.920;6.536;2023-01-19T01:05:05;3.22;;;2.67;;
61015;SDS011;46902;52.920;6.536;2023-01-19T01:07:32;3.38;;;2.60;;
61015;SDS011;46902;52.920;6.536;2023-01-19T01:10:06;3.70;;;2.70;;
61015;SDS011;46902;52.920;6.536;2023-01-19T01:12:33;3.28;;;2.20;;
61015;SDS011;46902;52.920;6.536;2023-01-19T01:14:58;3.97;;;2.60;;
61015;SDS011;46902;52.920;6.536;2023-01-19T01:17:24;4.45;;;2.35;;
61015;SDS011;46902;52.920;6.536;2023-01-19T01:19:50;2.63;;;2.15;;
61015;SDS011;46902;52.920;6.536;2023-01-19T01:22:16;3.38;;;2.53;;
61015;SDS011;46902;52.920;6.536;2023-01-19T01:24:42;3.72;;;2.65;;
61015;SDS011;46902;52.920;6.536;2023-01-19T01:27:08;3.70;;;2.35;;
61015;SDS011;46902;52.920;6.536;2023-01-19T01:29:34;3.00;;;2.67;;
61015;SDS011;46902;52.920;6.536;2023-01-19T01:31:59;3.67;;;2.80;;
61015;SDS011;46902;52.920;6.536;2023-01-19T01:34:25;4.65;;;3.40;;
61015;SDS011;46902;52.920;6.536;2023-01-19T01:36:51;3.78;;;3.30;;
61015;SDS011;46902;52.920;6.536;2023-01-19T01:39:18;3.70;;;3.00;;
61015;SDS011;46902;52.920;6.536;2023-01-19T01:41:44;5.05;;;3.63;;
61015;SDS011;46902;52.920;6.536;2023-01-19T01:45:14;5.65;;;3.75;;
61015;SDS011;46902;52.920;6.536;2023-01-19T01:52:40;7.18;;;4.80;;
61015;SDS011;46902;52.920;6.536;2023-01-19T01:55:09;9.48;;;5.40;;
61015;SDS011;46902;52.920;6.536;2023-01-19T01:57:38;7.45;;;5.05;;
61015;SDS011;46902;52.920;6.536;2023-01-19T02:00:07;7.95;;;5.32;;
61015;SDS011;46902;52.920;6.536;2023-01-19T02:02:35;7.43;;;5.10;;
61015;SDS011;46902;52.920;6.536;2023-01-19T02:10:41;8.63;;;5.90;;
61015;SDS011;46902;52.920;6.536;2023-01-19T02:13:30;8.05;;;6.22;;
61015;SDS011;46902;52.920;6.536;2023-01-19T02:15:58;8.30;;;6.47;;
61015;SDS011;46902;52.920;6.536;2023-01-19T02:18:27;8.82;;;7.03;;
61015;SDS011;46902;52.920;6.536;2023-01-19T02:21:09;10.68;;;6.20;;
61015;SDS011;46902;52.920;6.536;2023-01-19T02:23:47;11.45;;;7.78;;
61015;SDS011;46902;52.920;6.536;2023-01-19T02:26:15;13.18;;;8.30;;
61015;SDS011;46902;52.920;6.536;2023-01-19T02:28:48;11.93;;;9.02;;
61015;SDS011;46902;52.920;6.536;2023-01-19T02:31:18;10.85;;;8.32;;
61015;SDS011;46902;52.920;6.536;2023-01-19T02:33:44;11.35;;;8.93;;
61015;SDS011;46902;52.920;6.536;2023-01-19T02:36:10;12.82;;;9.10;;
61015;SDS011;46902;52.920;6.536;2023-01-19T02:38:39;14.65;;;8.93;;
61015;SDS011;46902;52.920;6.536;2023-01-19T02:41:06;11.93;;;9.35;;
61015;SDS011;46902;52.920;6.536;2023-01-19T02:43:35;12.73;;;9.73;;
61015;SDS011;46902;52.920;6.536;2023-01-19T02:46:02;15.88;;;9.77;;
61015;SDS011;46902;52.920;6.536;2023-01-19T02:48:28;12.23;;;9.32;;
61015;SDS011;46902;52.920;6.536;2023-01-19T02:50:57;13.43;;;10.27;;
61015;SDS011;46902;52.920;6.536;2023-01-19T02:56:11;17.70;;;9.70;;
61015;SDS011;46902;52.920;6.536;2023-01-19T03:12:59;12.10;;;9.90;;
61015;SDS011;46902;52.920;6.536;2023-01-19T03:18:08;10.15;;;8.35;;
61015;SDS011;46902;52.920;6.536;2023-01-19T03:20:36;9.60;;;8.02;;
61015;SDS011;46902;52.920;6.536;2023-01-19T03:23:05;8.55;;;6.85;;
61015;SDS011;46902;52.920;6.536;2023-01-19T03:25:34;7.57;;;6.10;;
61015;SDS011;46902;52.920;6.536;2023-01-19T03:28:03;6.13;;;5.10;;
61015;SDS011;46902;52.920;6.536;2023-01-19T03:30:39;5.80;;;4.57;;
61015;SDS011;46902;52.920;6.536;2023-01-19T03:33:12;8.30;;;4.85;;
61015;SDS011;46902;52.920;6.536;2023-01-19T03:35:43;6.03;;;4.68;;
61015;SDS011;46902;52.920;6.536;2023-01-19T03:38:17;8.88;;;5.05;;
61015;SDS011;46902;52.920;6.536;2023-01-19T03:40:49;5.97;;;4.33;;
61015;SDS011;46902;52.920;6.536;2023-01-19T03:43:18;5.78;;;4.30;;
61015;SDS011;46902;52.920;6.536;2023-01-19T03:45:44;8.80;;;4.95;;
61015;SDS011;46902;52.920;6.536;2023-01-19T03:48:10;5.70;;;4.20;;
61015;SDS011;46902;52.920;6.536;2023-01-19T03:50:36;7.60;;;4.63;;
61015;SDS011;46902;52.920;6.536;2023-01-19T03:53:12;5.82;;;4.55;;
61015;SDS011;46902;52.920;6.536;2023-01-19T03:55:40;6.70;;;4.30;;
61015;SDS011;46902;52.920;6.536;2023-01-19T03:58:08;7.13;;;4.88;;
61015;SDS011;46902;52.920;6.536;2023-01-19T04:00:34;6.20;;;4.70;;
61015;SDS011;46902;52.920;6.536;2023-01-19T04:03:00;6.30;;;4.47;;
61015;SDS011;46902;52.920;6.536;2023-01-19T04:05:27;4.65;;;3.90;;
61015;SDS011;46902;52.920;6.536;2023-01-19T04:07:53;5.00;;;3.80;;
61015;SDS011;46902;52.920;6.536;2023-01-19T04:10:19;5.78;;;3.25;;
61015;SDS011;46902;52.920;6.536;2023-01-19T04:12:46;5.50;;;3.58;;
61015;SDS011;46902;52.920;6.536;2023-01-19T04:15:11;3.92;;;3.08;;
61015;SDS011;46902;52.920;6.536;2023-01-19T04:17:37;3.92;;;2.58;;
61015;SDS011;46902;52.920;6.536;2023-01-19T04:20:03;4.95;;;2.80;;
61015;SDS011;46902;52.920;6.536;2023-01-19T04:22:30;4.35;;;2.80;;
61015;SDS011;46902;52.920;6.536;2023-01-19T04:24:56;5.97;;;3.38;;
61015;SDS011;46902;52.920;6.536;2023-01-19T04:27:22;4.50;;;2.53;;
61015;SDS011;46902;52.920;6.536;2023-01-19T04:29:47;4.80;;;2.50;;
61015;SDS011;46902;52.920;6.536;2023-01-19T04:32:13;4.68;;;2.22;;
61015;SDS011;46902;52.920;6.536;2023-01-19T04:34:38;3.15;;;2.10;;
61015;SDS011;46902;52.920;6.536;2023-01-19T04:37:04;3.53;;;1.73;;
61015;SDS011;46902;52.920;6.536;2023-01-19T04:39:30;3.30;;;2.05;;
61015;SDS011;46902;52.920;6.536;2023-01-19T04:41:55;3.70;;;2.03;;
61015;SDS011;46902;52.920;6.536;2023-01-19T04:44:22;5.90;;;2.10;;
61015;SDS011;46902;52.920;6.536;2023-01-19T04:46:47;6.00;;;1.83;;
61015;SDS011;46902;52.920;6.536;2023-01-19T04:49:13;5.40;;;1.65;;
61015;SDS011;46902;52.920;6.536;2023-01-19T04:51:39;4.45;;;1.13;;
61015;SDS011;46902;52.920;6.536;2023-01-19T04:54:05;6.18;;;1.92;;
61015;SDS011;46902;52.920;6.536;2023-01-19T04:56:32;7.15;;;1.13;;
61015;SDS011;46902;52.920;6.536;2023-01-19T04:58:59;7.32;;;1.55;;
61015;SDS011;46902;52.920;6.536;2023-01-19T05:01:24;6.57;;;0.85;;
61015;SDS011;46902;52.920;6.536;2023-01-19T05:03:50;13.85;;;0.85;;
61015;SDS011;46902;52.920;6.536;2023-01-19T05:06:16;7.68;;;1.10;;
61015;SDS011;46902;52.920;6.536;2023-01-19T05:08:41;5.03;;;0.60;;
61015;SDS011;46902;52.920;6.536;2023-01-19T05:11:07;5.32;;;1.00;;
61015;SDS011;46902;52.920;6.536;2023-01-19T05:13:32;12.23;;;1.27;;
61015;SDS011;46902;52.920;6.536;2023-01-19T05:15:59;10.07;;;1.30;;
61015;SDS011;46902;52.920;6.536;2023-01-19T05:18:25;8.70;;;1.20;;
61015;SDS011;46902;52.920;6.536;2023-01-19T05:20:50;10.02;;;1.35;;
61015;SDS011;46902;52.920;6.536;2023-01-19T05:23:16;7.45;;;1.17;;
61015;SDS011;46902;52.920;6.536;2023-01-19T05:25:42;9.32;;;1.20;;
61015;SDS011;46902;52.920;6.536;2023-01-19T05:28:09;12.80;;;1.33;;
61015;SDS011;46902;52.920;6.536;2023-01-19T05:30:35;11.60;;;1.08;;
61015;SDS011;46902;52.920;6.536;2023-01-19T05:33:01;11.02;;;1.00;;
61015;SDS011;46902;52.920;6.536;2023-01-19T05:35:26;7.10;;;1.30;;
61015;SDS011;46902;52.920;6.536;2023-01-19T05:37:52;12.82;;;1.13;;
61015;SDS011;46902;52.920;6.536;2023-01-19T05:40:18;10.10;;;1.35;;
61015;SDS011;46902;52.920;6.536;2023-01-19T05:42:43;11.98;;;1.58;;
61015;SDS011;46902;52.920;6.536;2023-01-19T05:45:09;8.38;;;1.15;;
61015;SDS011;46902;52.920;6.536;2023-01-19T05:47:35;5.72;;;1.05;;
61015;SDS011;46902;52.920;6.536;2023-01-19T05:50:01;9.93;;;1.30;;
61015;SDS011;46902;52.920;6.536;2023-01-19T05:52:27;8.75;;;1.00;;
61015;SDS011;46902;52.920;6.536;2023-01-19T05:54:53;4.68;;;0.90;;
61015;SDS011;46902;52.920;6.536;2023-01-19T05:57:19;7.90;;;1.05;;
61015;SDS011;46902;52.920;6.536;2023-01-19T05:59:45;7.47;;;0.90;;
61015;SDS011;46902;52.920;6.536;2023-01-19T06:02:11;6.60;;;1.20;;
61015;SDS011;46902;52.920;6.536;2023-01-19T06:04:37;5.78;;;1.00;;
61015;SDS011;46902;52.920;6.536;2023-01-19T06:07:03;8.02;;;1.00;;
61015;SDS011;46902;52.920;6.536;2023-01-19T06:09:30;9.27;;;1.20;;
61015;SDS011;46902;52.920;6.536;2023-01-19T06:11:57;9.25;;;1.08;;
61015;SDS011;46902;52.920;6.536;2023-01-19T06:14:23;7.95;;;1.20;;
61015;SDS011;46902;52.920;6.536;2023-01-19T06:16:50;9.10;;;0.93;;
61015;SDS011;46902;52.920;6.536;2023-01-19T06:19:15;7.43;;;0.88;;
61015;SDS011;46902;52.920;6.536;2023-01-19T06:21:41;8.07;;;1.10;;
61015;SDS011;46902;52.920;6.536;2023-01-19T06:24:13;12.65;;;1.00;;
61015;SDS011;46902;52.920;6.536;2023-01-19T06:26:39;6.63;;;0.77;;
61015;SDS011;46902;52.920;6.536;2023-01-19T06:29:07;9.45;;;1.20;;
61015;SDS011;46902;52.920;6.536;2023-01-19T06:31:33;7.15;;;1.17;;
61015;SDS011;46902;52.920;6.536;2023-01-19T06:33:59;9.75;;;1.27;;
61015;SDS011;46902;52.920;6.536;2023-01-19T06:36:25;8.57;;;1.63;;
61015;SDS011;46902;52.920;6.536;2023-01-19T06:38:50;6.65;;;1.20;;
61015;SDS011;46902;52.920;6.536;2023-01-19T06:41:16;8.75;;;1.20;;
61015;SDS011;46902;52.920;6.536;2023-01-19T06:43:41;6.30;;;0.90;;
61015;SDS011;46902;52.920;6.536;2023-01-19T06:46:07;6.45;;;0.93;;
61015;SDS011;46902;52.920;6.536;2023-01-19T06:48:32;7.25;;;0.90;;
61015;SDS011;46902;52.920;6.536;2023-01-19T06:50:58;8.75;;;0.90;;
61015;SDS011;46902;52.920;6.536;2023-01-19T06:53:23;15.75;;;1.33;;
61015;SDS011;46902;52.920;6.536;2023-01-19T06:55:51;7.85;;;1.10;;
61015;SDS011;46902;52.920;6.536;2023-01-19T06:58:17;11.02;;;1.05;;
61015;SDS011;46902;52.920;6.536;2023-01-19T07:00:42;8.15;;;1.20;;
61015;SDS011;46902;52.920;6.536;2023-01-19T07:03:10;11.02;;;1.20;;
61015;SDS011;46902;52.920;6.536;2023-01-19T07:05:43;10.93;;;1.33;;
61015;SDS011;46902;52.920;6.536;2023-01-19T07:08:09;10.52;;;1.13;;
61015;SDS011;46902;52.920;6.536;2023-01-19T07:10:34;12.25;;;1.48;;
61015;SDS011;46902;52.920;6.536;2023-01-19T07:13:01;11.20;;;1.30;;
61015;SDS011;46902;52.920;6.536;2023-01-19T07:15:26;8.10;;;1.50;;
61015;SDS011;46902;52.920;6.536;2023-01-19T07:17:52;9.77;;;1.65;;
61015;SDS011;46902;52.920;6.536;2023-01-19T07:20:22;12.68;;;1.73;;
61015;SDS011;46902;52.920;6.536;2023-01-19T07:22:53;8.88;;;1.30;;
61015;SDS011;46902;52.920;6.536;2023-01-19T07:25:20;16.25;;;1.60;;
61015;SDS011;46902;52.920;6.536;2023-01-19T07:27:46;12.63;;;1.63;;
61015;SDS011;46902;52.920;6.536;2023-01-19T07:30:11;10.18;;;1.50;;
61015;SDS011;46902;52.920;6.536;2023-01-19T07:32:40;11.65;;;1.70;;
61015;SDS011;46902;52.920;6.536;2023-01-19T07:35:07;13.23;;;1.88;;
61015;SDS011;46902;52.920;6.536;2023-01-19T07:37:33;11.88;;;1.73;;
61015;SDS011;46902;52.920;6.536;2023-01-19T07:39:59;14.20;;;2.03;;
61015;SDS011;46902;52.920;6.536;2023-01-19T07:42:25;15.75;;;2.25;;
61015;SDS011;46902;52.920;6.536;2023-01-19T07:44:51;13.43;;;2.13;;
61015;SDS011;46902;52.920;6.536;2023-01-19T07:47:16;21.95;;;1.73;;
61015;SDS011;46902;52.920;6.536;2023-01-19T07:49:42;14.75;;;1.75;;
61015;SDS011;46902;52.920;6.536;2023-01-19T07:52:07;18.38;;;2.35;;
61015;SDS011;46902;52.920;6.536;2023-01-19T07:54:33;16.27;;;2.00;;
61015;SDS011;46902;52.920;6.536;2023-01-19T07:56:59;20.13;;;2.25;;
61015;SDS011;46902;52.920;6.536;2023-01-19T07:59:25;18.67;;;1.85;;
61015;SDS011;46902;52.920;6.536;2023-01-19T08:01:51;16.65;;;2.28;;
61015;SDS011;46902;52.920;6.536;2023-01-19T08:04:18;10.85;;;1.73;;
61015;SDS011;46902;52.920;6.536;2023-01-19T08:06:44;13.07;;;1.65;;
61015;SDS011;46902;52.920;6.536;2023-01-19T08:09:11;18.48;;;2.20;;
61015;SDS011;46902;52.920;6.536;2023-01-19T08:11:36;14.07;;;2.08;;
61015;SDS011;46902;52.920;6.536;2023-01-19T08:14:02;16.27;;;2.00;;
61015;SDS011;46902;52.920;6.536;2023-01-19T08:16:28;12.88;;;1.88;;
61015;SDS011;46902;52.920;6.536;2023-01-19T08:18:54;15.75;;;1.92;;
61015;SDS011;46902;52.920;6.536;2023-01-19T08:21:20;15.80;;;2.03;;
61015;SDS011;46902;52.920;6.536;2023-01-19T08:23:52;19.55;;;2.28;;
61015;SDS011;46902;52.920;6.536;2023-01-19T08:28:47;19.77;;;2.67;;
61015;SDS011;46902;52.920;6.536;2023-01-19T08:31:13;17.08;;;2.22;;
61015;SDS011;46902;52.920;6.536;2023-01-19T08:33:39;16.88;;;2.85;;
61015;SDS011;46902;52.920;6.536;2023-01-19T08:36:06;11.85;;;1.92;;
61015;SDS011;46902;52.920;6.536;2023-01-19T08:38:32;11.45;;;2.20;;
61015;SDS011;46902;52.920;6.536;2023-01-19T08:40:58;13.80;;;1.90;;
61015;SDS011;46902;52.920;6.536;2023-01-19T08:43:23;24.45;;;3.05;;
61015;SDS011;46902;52.920;6.536;2023-01-19T08:45:49;16.27;;;2.50;;
61015;SDS011;46902;52.920;6.536;2023-01-19T08:48:17;18.00;;;2.83;;
61015;SDS011;46902;52.920;6.536;2023-01-19T08:50:46;14.65;;;1.98;;
61015;SDS011;46902;52.920;6.536;2023-01-19T08:53:13;21.63;;;3.03;;
61015;SDS011;46902;52.920;6.536;2023-01-19T08:55:39;16.45;;;2.65;;
61015;SDS011;46902;52.920;6.536;2023-01-19T08:58:05;19.67;;;2.35;;
61015;SDS011;46902;52.920;6.536;2023-01-19T09:00:33;18.50;;;2.67;;
61015;SDS011;46902;52.920;6.536;2023-01-19T09:02:59;17.58;;;3.00;;
61015;SDS011;46902;52.920;6.536;2023-01-19T09:05:28;21.45;;;2.70;;
61015;SDS011;46902;52.920;6.536;2023-01-19T09:07:59;17.38;;;3.00;;
61015;SDS011;46902;52.920;6.536;2023-01-19T09:10:26;18.08;;;3.42;;
61015;SDS011;46902;52.920;6.536;2023-01-19T09:12:56;21.05;;;2.80;;
61015;SDS011;46902;52.920;6.536;2023-01-19T09:15:21;23.77;;;3.45;;
61015;SDS011;46902;52.920;6.536;2023-01-19T09:17:47;19.60;;;2.75;;
61015;SDS011;46902;52.920;6.536;2023-01-19T09:20:15;21.38;;;3.30;;
61015;SDS011;46902;52.920;6.536;2023-01-19T09:22:41;21.05;;;3.38;;
61015;SDS011;46902;52.920;6.536;2023-01-19T09:25:06;19.15;;;2.15;;
61015;SDS011;46902;52.920;6.536;2023-01-19T09:27:32;17.58;;;2.45;;
61015;SDS011;46902;52.920;6.536;2023-01-19T09:29:58;24.05;;;3.13;;
61015;SDS011;46902;52.920;6.536;2023-01-19T09:32:24;18.48;;;2.58;;
61015;SDS011;46902;52.920;6.536;2023-01-19T09:34:50;16.98;;;3.00;;
61015;SDS011;46902;52.920;6.536;2023-01-19T09:37:17;16.75;;;2.72;;
61015;SDS011;46902;52.920;6.536;2023-01-19T09:39:43;17.70;;;2.60;;
61015;SDS011;46902;52.920;6.536;2023-01-19T09:42:21;21.02;;;3.15;;
61015;SDS011;46902;52.920;6.536;2023-01-19T09:44:55;19.95;;;2.53;;
61015;SDS011;46902;52.920;6.536;2023-01-19T09:47:22;14.00;;;2.00;;
61015;SDS011;46902;52.920;6.536;2023-01-19T09:49:57;11.80;;;2.00;;
61015;SDS011;46902;52.920;6.536;2023-01-19T09:52:26;18.73;;;2.28;;
61015;SDS011;46902;52.920;6.536;2023-01-19T09:54:55;12.43;;;1.85;;
61015;SDS011;46902;52.920;6.536;2023-01-19T09:57:22;12.93;;;1.88;;
61015;SDS011;46902;52.920;6.536;2023-01-19T09:59:49;13.40;;;1.90;;
61015;SDS011;46902;52.920;6.536;2023-01-19T10:04:42;19.23;;;2.10;;
61015;SDS011;46902;52.920;6.536;2023-01-19T10:10:18;14.82;;;2.05;;
61015;SDS011;46902;52.920;6.536;2023-01-19T10:12:51;14.27;;;2.40;;
61015;SDS011;46902;52.920;6.536;2023-01-19T10:18:42;16.63;;;2.22;;
61015;SDS011;46902;52.920;6.536;2023-01-19T10:21:18;16.35;;;2.15;;
61015;SDS011;46902;52.920;6.536;2023-01-19T10:26:37;17.20;;;2.42;;
61015;SDS011;46902;52.920;6.536;2023-01-19T10:29:12;17.40;;;2.63;;
61015;SDS011;46902;52.920;6.536;2023-01-19T10:34:36;22.48;;;2.30;;
61015;SDS011;46902;52.920;6.536;2023-01-19T10:42:35;15.27;;;2.35;;
61015;SDS011;46902;52.920;6.536;2023-01-19T10:45:08;15.52;;;2.60;;
61015;SDS011;46902;52.920;6.536;2023-01-19T10:47:42;10.27;;;2.03;;
61015;SDS011;46902;52.920;6.536;2023-01-19T10:52:49;11.25;;;1.60;;
61015;SDS011;46902;52.920;6.536;2023-01-19T10:55:23;19.80;;;2.13;;
61015;SDS011;46902;52.920;6.536;2023-01-19T10:57:54;14.73;;;1.90;;
61015;SDS011;46902;52.920;6.536;2023-01-19T11:02:54;17.20;;;2.05;;
61015;SDS011;46902;52.920;6.536;2023-01-19T11:05:22;17.27;;;1.95;;
61015;SDS011;46902;52.920;6.536;2023-01-19T11:07:49;9.85;;;1.92;;
61015;SDS011;46902;52.920;6.536;2023-01-19T11:12:40;8.88;;;1.60;;
61015;SDS011;46902;52.920;6.536;2023-01-19T11:15:52;10.57;;;1.83;;
61015;SDS011;46902;52.920;6.536;2023-01-19T11:17:53;13.75;;;1.90;;
61015;SDS011;46902;52.920;6.536;2023-01-19T11:20:22;13.27;;;1.85;;
61015;SDS011;46902;52.920;6.536;2023-01-19T11:25:39;9.00;;;1.52;;
61015;SDS011;46902;52.920;6.536;2023-01-19T11:28:29;15.05;;;2.00;;
61015;SDS011;46902;52.920;6.536;2023-01-19T11:36:15;9.75;;;2.08;;
61015;SDS011;46902;52.920;6.536;2023-01-19T11:38:52;12.93;;;1.92;;
61015;SDS011;46902;52.920;6.536;2023-01-19T11:43:47;10.35;;;1.58;;
61015;SDS011;46902;52.920;6.536;2023-01-19T11:46:15;15.60;;;2.10;;
61015;SDS011;46902;52.920;6.536;2023-01-19T11:48:45;10.85;;;1.85;;
61015;SDS011;46902;52.920;6.536;2023-01-19T11:51:34;10.90;;;1.40;;
61015;SDS011;46902;52.920;6.536;2023-01-19T11:54:24;11.30;;;1.40;;
61015;SDS011;46902;52.920;6.536;2023-01-19T11:56:56;13.55;;;2.00;;
61015;SDS011;46902;52.920;6.536;2023-01-19T11:59:24;9.00;;;1.75;;
61015;SDS011;46902;52.920;6.536;2023-01-19T12:01:51;12.52;;;1.70;;
61015;SDS011;46902;52.920;6.536;2023-01-19T12:04:25;9.07;;;1.40;;
61015;SDS011;46902;52.920;6.536;2023-01-19T12:06:59;10.75;;;1.98;;
61015;SDS011;46902;52.920;6.536;2023-01-19T12:09:43;12.02;;;1.67;;
61015;SDS011;46902;52.920;6.536;2023-01-19T12:12:13;9.82;;;1.33;;
61015;SDS011;46902;52.920;6.536;2023-01-19T12:17:43;8.68;;;1.20;;
61015;SDS011;46902;52.920;6.536;2023-01-19T12:20:18;6.22;;;1.23;;
61015;SDS011;46902;52.920;6.536;2023-01-19T12:28:31;10.18;;;1.55;;
61015;SDS011;46902;52.920;6.536;2023-01-19T12:31:01;5.85;;;1.00;;
61015;SDS011;46902;52.920;6.536;2023-01-19T12:35:58;7.72;;;1.40;;
61015;SDS011;46902;52.920;6.536;2023-01-19T12:38:33;7.55;;;1.52;;
61015;SDS011;46902;52.920;6.536;2023-01-19T12:46:35;9.35;;;1.08;;
61015;SDS011;46902;52.920;6.536;2023-01-19T12:49:09;8.73;;;1.55;;
61015;SDS011;46902;52.920;6.536;2023-01-19T12:51:41;7.88;;;1.15;;
61015;SDS011;46902;52.920;6.536;2023-01-19T12:54:07;4.68;;;1.05;;
61015;SDS011;46902;52.920;6.536;2023-01-19T12:57:01;8.57;;;1.15;;
61015;SDS011;46902;52.920;6.536;2023-01-19T12:59:30;9.02;;;1.05;;
61015;SDS011;46902;52.920;6.536;2023-01-19T13:08:41;8.63;;;1.20;;
61015;SDS011;46902;52.920;6.536;2023-01-19T13:18:59;3.35;;;0.70;;
61015;SDS011;46902;52.920;6.536;2023-01-19T13:21:45;9.55;;;1.52;;
61015;SDS011;46902;52.920;6.536;2023-01-19T13:29:14;9.77;;;1.23;;
61015;SDS011;46902;52.920;6.536;2023-01-19T13:34:30;9.68;;;1.35;;
61015;SDS011;46902;52.920;6.536;2023-01-19T13:37:04;8.48;;;1.15;;
61015;SDS011;46902;52.920;6.536;2023-01-19T13:39:36;7.63;;;1.30;;
61015;SDS011;46902;52.920;6.536;2023-01-19T13:42:06;7.05;;;1.02;;
61015;SDS011;46902;52.920;6.536;2023-01-19T13:44:57;10.20;;;1.35;;
61015;SDS011;46902;52.920;6.536;2023-01-19T13:47:36;6.55;;;1.10;;
61015;SDS011;46902;52.920;6.536;2023-01-19T13:50:17;5.85;;;0.85;;
61015;SDS011;46902;52.920;6.536;2023-01-19T13:52:44;6.30;;;1.20;;
61015;SDS011;46902;52.920;6.536;2023-01-19T13:55:13;8.43;;;1.23;;
61015;SDS011;46902;52.920;6.536;2023-01-19T13:57:44;7.72;;;0.85;;
61015;SDS011;46902;52.920;6.536;2023-01-19T14:13:22;5.28;;;0.70;;
61015;SDS011;46902;52.920;6.536;2023-01-19T14:15:50;4.43;;;0.50;;
61015;SDS011;46902;52.920;6.536;2023-01-19T14:23:39;1.88;;;0.30;;
61015;SDS011;46902;52.920;6.536;2023-01-19T14:36:59;4.85;;;0.70;;
61015;SDS011;46902;52.920;6.536;2023-01-19T14:39:28;6.03;;;0.93;;
61015;SDS011;46902;52.920;6.536;2023-01-19T14:41:57;6.45;;;1.08;;
61015;SDS011;46902;52.920;6.536;2023-01-19T14:44:33;6.07;;;1.02;;
61015;SDS011;46902;52.920;6.536;2023-01-19T14:47:01;5.85;;;0.95;;
61015;SDS011;46902;52.920;6.536;2023-01-19T14:49:35;6.35;;;0.95;;
61015;SDS011;46902;52.920;6.536;2023-01-19T14:52:04;7.45;;;0.90;;
61015;SDS011;46902;52.920;6.536;2023-01-19T14:54:39;8.27;;;0.98;;
61015;SDS011;46902;52.920;6.536;2023-01-19T14:57:12;5.63;;;1.00;;
61015;SDS011;46902;52.920;6.536;2023-01-19T14:59:38;6.63;;;1.10;;
61015;SDS011;46902;52.920;6.536;2023-01-19T15:02:04;9.65;;;1.38;;
61015;SDS011;46902;52.920;6.536;2023-01-19T15:04:30;8.07;;;1.27;;
61015;SDS011;46902;52.920;6.536;2023-01-19T15:06:55;6.53;;;1.08;;
61015;SDS011;46902;52.920;6.536;2023-01-19T15:09:22;8.35;;;1.38;;
61015;SDS011;46902;52.920;6.536;2023-01-19T15:11:48;10.50;;;1.15;;
61015;SDS011;46902;52.920;6.536;2023-01-19T15:14:15;7.70;;;1.13;;
61015;SDS011;46902;52.920;6.536;2023-01-19T15:16:42;10.00;;;1.33;;
61015;SDS011;46902;52.920;6.536;2023-01-19T15:19:12;5.43;;;1.08;;
61015;SDS011;46902;52.920;6.536;2023-01-19T15:21:40;9.07;;;1.15;;
61015;SDS011;46902;52.920;6.536;2023-01-19T15:24:07;5.28;;;1.05;;
61015;SDS011;46902;52.920;6.536;2023-01-19T15:26:34;6.75;;;0.93;;
61015;SDS011;46902;52.920;6.536;2023-01-19T15:29:01;6.10;;;1.08;;
61015;SDS011;46902;52.920;6.536;2023-01-19T15:31:33;7.53;;;0.90;;
61015;SDS011;46902;52.920;6.536;2023-01-19T15:34:00;7.43;;;1.23;;
61015;SDS011;46902;52.920;6.536;2023-01-19T15:36:25;11.60;;;1.20;;
61015;SDS011;46902;52.920;6.536;2023-01-19T15:38:51;7.22;;;1.38;;
61015;SDS011;46902;52.920;6.536;2023-01-19T15:41:24;6.95;;;1.33;;
61015;SDS011;46902;52.920;6.536;2023-01-19T15:43:51;10.80;;;1.55;;
61015;SDS011;46902;52.920;6.536;2023-01-19T15:46:20;7.82;;;1.30;;
61015;SDS011;46902;52.920;6.536;2023-01-19T15:48:47;9.90;;;2.03;;
61015;SDS011;46902;52.920;6.536;2023-01-19T15:51:18;8.30;;;1.23;;
61015;SDS011;46902;52.920;6.536;2023-01-19T15:53:45;13.32;;;1.80;;
61015;SDS011;46902;52.920;6.536;2023-01-19T15:56:25;14.13;;;1.30;;
61015;SDS011;46902;52.920;6.536;2023-01-19T15:58:52;10.80;;;1.42;;
61015;SDS011;46902;52.920;6.536;2023-01-19T16:01:20;11.13;;;1.52;;
61015;SDS011;46902;52.920;6.536;2023-01-19T16:03:47;6.95;;;1.35;;
61015;SDS011;46902;52.920;6.536;2023-01-19T16:06:14;6.88;;;1.70;;
61015;SDS011;46902;52.920;6.536;2023-01-19T16:08:41;12.35;;;1.80;;
61015;SDS011;46902;52.920;6.536;2023-01-19T16:11:09;7.00;;;1.50;;
61015;SDS011;46902;52.920;6.536;2023-01-19T16:13:36;7.10;;;1.70;;
61015;SDS011;46902;52.920;6.536;2023-01-19T16:16:03;7.53;;;1.73;;
61015;SDS011;46902;52.920;6.536;2023-01-19T16:18:30;4.82;;;1.40;;
61015;SDS011;46902;52.920;6.536;2023-01-19T16:20:56;10.57;;;2.13;;
61015;SDS011;46902;52.920;6.536;2023-01-19T16:23:21;10.52;;;2.28;;
61015;SDS011;46902;52.920;6.536;2023-01-19T16:25:54;9.07;;;1.85;;
61015;SDS011;46902;52.920;6.536;2023-01-19T16:28:21;9.73;;;1.65;;
61015;SDS011;46902;52.920;6.536;2023-01-19T16:30:47;13.85;;;2.20;;
61015;SDS011;46902;52.920;6.536;2023-01-19T16:33:13;14.52;;;2.10;;
61015;SDS011;46902;52.920;6.536;2023-01-19T16:35:39;8.73;;;1.88;;
61015;SDS011;46902;52.920;6.536;2023-01-19T16:38:04;8.38;;;1.63;;
61015;SDS011;46902;52.920;6.536;2023-01-19T16:40:30;9.25;;;1.95;;
61015;SDS011;46902;52.920;6.536;2023-01-19T16:42:56;11.30;;;2.33;;
61015;SDS011;46902;52.920;6.536;2023-01-19T16:45:21;8.73;;;2.40;;
61015;SDS011;46902;52.920;6.536;2023-01-19T16:47:47;7.40;;;2.45;;
61015;SDS011;46902;52.920;6.536;2023-01-19T16:50:16;12.88;;;2.85;;
61015;SDS011;46902;52.920;6.536;2023-01-19T16:52:41;8.90;;;2.42;;
61015;SDS011;46902;52.920;6.536;2023-01-19T16:55:07;9.13;;;1.98;;
61015;SDS011;46902;52.920;6.536;2023-01-19T16:57:33;14.65;;;2.50;;
61015;SDS011;46902;52.920;6.536;2023-01-19T17:00:00;9.63;;;2.40;;
61015;SDS011;46902;52.920;6.536;2023-01-19T17:02:26;9.48;;;2.88;;
61015;SDS011;46902;52.920;6.536;2023-01-19T17:04:51;11.98;;;3.05;;
61015;SDS011;46902;52.920;6.536;2023-01-19T17:07:17;8.23;;;2.75;;
61015;SDS011;46902;52.920;6.536;2023-01-19T17:09:43;10.63;;;2.95;;